KCEW/CEW METAR and TAF weather

Enter ICAO airport designator
Station Type Date Time Source
KCEW METAR 2019/08/24 09:53 UTC NOAA

KCEW 240953Z AUTO 00000KT 2 1/2SM BR FEW001 23/22 A3000 RMK AO2 SLP155 T02280222


Station Type Date Time Source
KCEW Decoded METAR 2019/08/24 09:53 UTC NOAA

Station name not available
Aug 24, 2019 - 05:53 AM EDT / 2019.08.24 0953 UTC
Wind: Calm:0
Visibility: 2 1/2 mile(s):0
Sky conditions: mostly clear
Weather: mist
Temperature: 73.0 F (22.8 C)
Dew Point: 72.0 F (22.2 C)
Relative Humidity: 96%
Pressure (altimeter): 30 in. Hg (1015 hPa)
ob: KCEW 240953Z AUTO 00000KT 2 1/2SM BR FEW001 23/22 A3000 RMK AO2 SLP155 T02280222
cycle: 10

Station Type Date Time Source
KCEW TAF UTC NOAA

Error!

Example: see airport list